createdAt,value
2018-12-15T00:00:53.392Z,121.80
2018-12-15T00:03:22.249Z,112.17
2018-12-15T00:05:51.128Z,125.63
2018-12-15T00:08:20.108Z,131.60
2018-12-15T00:10:48.910Z,132.10
2018-12-15T00:13:17.913Z,114.10
2018-12-15T00:15:46.916Z,131.70
2018-12-15T00:18:15.704Z,119.27
2018-12-15T00:20:44.492Z,132.63
2018-12-15T00:23:13.374Z,119.23
2018-12-15T00:25:42.469Z,135.97
2018-12-15T00:28:11.417Z,136.73
2018-12-15T00:30:40.309Z,135.40
2018-12-15T00:33:09.193Z,128.73
2018-12-15T00:35:38.084Z,132.43
2018-12-15T00:38:07.074Z,146.80
2018-12-15T00:40:35.977Z,133.47
2018-12-15T00:43:04.858Z,124.57
2018-12-15T00:45:33.852Z,133.37
2018-12-15T00:48:02.788Z,137.37
2018-12-15T00:50:31.568Z,126.23
2018-12-15T00:53:00.548Z,139.47
2018-12-15T00:55:29.526Z,126.30
2018-12-15T00:57:58.404Z,128.80
2018-12-15T01:00:27.306Z,139.10
2018-12-15T01:02:56.300Z,132.33
2018-12-15T01:05:25.205Z,120.33
2018-12-15T01:07:54.126Z,109.77
2018-12-15T01:10:23.042Z,116.50
2018-12-15T01:12:52.172Z,114.77
2018-12-15T01:15:26.691Z,113.33
2018-12-15T01:17:55.570Z,114.03
2018-12-15T01:20:24.561Z,117.67
2018-12-15T01:22:53.343Z,105.83
2018-12-15T01:25:22.345Z,119.33
2018-12-15T01:27:51.445Z,122.17
2018-12-15T01:30:20.377Z,122.90
2018-12-15T01:32:49.156Z,117.97
2018-12-15T01:35:18.082Z,138.77
2018-12-15T01:37:47.082Z,132.57
2018-12-15T01:40:16.140Z,113.37
2018-12-15T01:42:45.141Z,120.30
2018-12-15T01:45:14.035Z,132.23
2018-12-15T01:47:42.942Z,136.40
2018-12-15T01:50:11.853Z,123.63
2018-12-15T01:52:40.877Z,127.97
2018-12-15T01:55:09.678Z,144.53
2018-12-15T01:57:38.497Z,138.30
2018-12-15T02:00:08.125Z,129.97
2018-12-15T02:02:37.142Z,132.30
2018-12-15T02:05:06.149Z,130.43
2018-12-15T02:07:34.986Z,130.80
2018-12-15T02:10:04.713Z,128.80
2018-12-15T02:12:33.609Z,132.17
2018-12-15T02:15:02.467Z,124.77
2018-12-15T02:17:33.728Z,134.67
2018-12-15T02:20:02.785Z,116.30
2018-12-15T02:22:31.778Z,129.63
2018-12-15T02:25:00.564Z,139.03
2018-12-15T02:27:29.440Z,128.27
2018-12-15T02:29:58.336Z,126.83
2018-12-15T02:32:27.133Z,141.10
2018-12-15T02:34:56.023Z,133.33
2018-12-15T02:37:24.964Z,120.13
2018-12-15T02:39:53.880Z,123.37
2018-12-15T02:42:22.779Z,125.60
2018-12-15T02:44:52.205Z,125.90
2018-12-15T02:47:21.121Z,130.10
2018-12-15T02:49:49.965Z,117.10
2018-12-15T02:52:18.901Z,132.80
2018-12-15T02:54:47.820Z,114.33
2018-12-15T02:57:16.606Z,106.83
2018-12-15T02:59:45.583Z,122.63
2018-12-15T03:02:14.570Z,118.83
2018-12-15T03:04:43.457Z,118.27
2018-12-15T03:07:12.404Z,110.83
2018-12-15T03:09:41.402Z,104.47
2018-12-15T03:12:10.313Z,107.77
2018-12-15T03:14:39.117Z,115.00
2018-12-15T03:17:08.147Z,107.17
2018-12-15T03:19:37.048Z,108.40
2018-12-15T03:22:05.858Z,113.50
2018-12-15T03:24:34.760Z,107.03
2018-12-15T03:27:03.769Z,106.33
2018-12-15T03:29:32.565Z,114.47
2018-12-15T03:32:04.706Z,117.83
2018-12-15T03:34:33.671Z,102.53
2018-12-15T03:37:02.566Z,103.10
2018-12-15T03:39:31.552Z,105.13
2018-12-15T03:42:01.020Z,117.30
2018-12-15T03:44:30.537Z,116.50
2018-12-15T03:46:59.433Z,115.60
2018-12-15T03:49:28.468Z,112.00
2018-12-15T03:51:57.409Z,107.13
2018-12-15T03:54:26.304Z,105.57
2018-12-15T03:56:55.088Z,113.93
2018-12-15T03:59:24.337Z,113.60
2018-12-15T04:01:53.218Z,102.27
2018-12-15T04:04:22.106Z,115.70
2018-12-15T04:06:50.977Z,105.33
2018-12-15T04:09:19.848Z,95.50
2018-12-15T04:11:48.690Z,99.10
2018-12-15T04:14:17.574Z,84.57
2018-12-15T04:16:46.564Z,78.90
2018-12-15T04:19:15.613Z,90.23
2018-12-15T04:21:44.510Z,84.07
2018-12-15T04:24:13.423Z,81.23
2018-12-15T04:26:42.309Z,76.73
2018-12-15T04:29:12.522Z,89.80
2018-12-15T04:31:41.421Z,79.03
2018-12-15T04:34:10.345Z,85.77
2018-12-15T04:36:39.363Z,81.90
2018-12-15T04:39:08.156Z,88.40
2018-12-15T04:41:37.039Z,80.33
2018-12-15T04:44:06.085Z,83.27
2018-12-15T04:46:34.973Z,91.23
2018-12-15T04:49:03.889Z,88.07
2018-12-15T04:51:32.889Z,89.77
2018-12-15T04:54:01.684Z,94.90
2018-12-15T04:56:31.346Z,88.70
2018-12-15T04:59:00.407Z,80.47
2018-12-15T05:01:29.562Z,74.70
2018-12-15T05:03:59.370Z,79.80
2018-12-15T05:06:28.397Z,85.67
2018-12-15T05:08:57.281Z,104.77
2018-12-15T05:11:26.157Z,93.70
2018-12-15T05:13:55.052Z,96.03
2018-12-15T05:16:23.950Z,86.87
2018-12-15T05:18:52.845Z,99.30
2018-12-15T05:21:21.729Z,97.00
2018-12-15T05:23:50.696Z,95.40
2018-12-15T05:26:19.508Z,101.47
2018-12-15T05:28:48.311Z,94.40
2018-12-15T05:31:17.157Z,83.00
2018-12-15T05:33:46.052Z,86.20
2018-12-15T05:36:15.186Z,97.43
2018-12-15T05:38:43.973Z,87.33
2018-12-15T05:41:13.014Z,86.03
2018-12-15T05:43:42.032Z,90.87
2018-12-15T05:46:11.063Z,99.83
2018-12-15T05:48:39.963Z,90.27
2018-12-15T05:51:08.769Z,85.97
2018-12-15T05:53:37.669Z,90.30
2018-12-15T05:56:06.637Z,89.00
2018-12-15T05:58:35.442Z,96.33
2018-12-15T06:01:04.282Z,84.33
2018-12-15T06:03:33.164Z,88.50
2018-12-15T06:06:02.098Z,88.53
2018-12-15T06:08:31.108Z,93.10
2018-12-15T06:11:00.097Z,89.90
2018-12-15T06:16:04.544Z,90.47
2018-12-15T06:18:33.598Z,98.67
2018-12-15T06:21:02.483Z,89.17
2018-12-15T06:23:31.367Z,94.33
2018-12-15T06:26:00.279Z,85.23
2018-12-15T06:28:29.172Z,93.30
2018-12-15T06:30:57.968Z,92.27
2018-12-15T06:33:26.973Z,80.97
2018-12-15T06:35:55.865Z,78.63
2018-12-15T06:38:24.855Z,86.50
2018-12-15T06:40:53.765Z,76.10
2018-12-15T06:43:22.924Z,89.47
2018-12-15T06:45:52.061Z,79.77
2018-12-15T06:48:20.983Z,81.67
2018-12-15T06:50:49.761Z,93.17
2018-12-15T06:53:18.537Z,90.17
2018-12-15T06:55:47.451Z,87.60
2018-12-15T06:58:16.241Z,79.50
2018-12-15T07:00:45.146Z,67.33
2018-12-15T07:03:14.200Z,72.80
2018-12-15T07:05:43.107Z,76.10
2018-12-15T07:08:12.012Z,70.43
2018-12-15T07:10:40.918Z,75.17
2018-12-15T07:13:09.705Z,83.53
2018-12-15T07:15:38.649Z,72.90
2018-12-15T07:18:07.554Z,77.40
2018-12-15T07:20:36.444Z,90.37
2018-12-15T07:23:05.223Z,93.60
2018-12-15T07:25:34.395Z,84.73
2018-12-15T07:28:03.236Z,100.23
2018-12-15T07:30:32.413Z,95.93
2018-12-15T07:33:01.386Z,112.67
2018-12-15T07:35:30.268Z,97.93
2018-12-15T07:37:59.226Z,116.93
2018-12-15T07:40:28.146Z,105.13
2018-12-15T07:42:56.924Z,96.50
2018-12-15T07:45:25.934Z,96.63
2018-12-15T07:47:54.849Z,95.70
2018-12-15T07:50:23.660Z,100.93
2018-12-15T07:52:52.497Z,105.77
2018-12-15T07:55:21.329Z,106.93
2018-12-15T07:57:50.168Z,110.97
2018-12-15T08:00:19.066Z,116.30
2018-12-15T08:02:47.947Z,118.90
2018-12-15T08:05:16.945Z,114.23
2018-12-15T08:07:45.838Z,115.43
2018-12-15T08:10:19.131Z,133.70
2018-12-15T08:12:52.509Z,119.87
2018-12-15T08:15:21.312Z,114.50
2018-12-15T08:17:51.073Z,116.90
2018-12-15T08:20:20.007Z,86.70
2018-12-15T08:22:49.172Z,106.00
2018-12-15T08:25:18.077Z,82.40
2018-12-15T08:27:46.864Z,84.33
2018-12-15T08:30:15.765Z,72.93
2018-12-15T08:32:45.533Z,77.60
2018-12-15T08:35:14.603Z,84.67
2018-12-15T08:37:43.498Z,82.80
2018-12-15T08:40:13.101Z,85.07
2018-12-15T08:42:42.016Z,84.57
2018-12-15T08:45:11.057Z,79.93
2018-12-15T08:47:39.868Z,70.90
2018-12-15T08:50:08.859Z,69.40
2018-12-15T08:52:37.901Z,78.00
2018-12-15T08:55:06.958Z,65.20
2018-12-15T08:57:35.997Z,65.43
2018-12-15T09:00:05.697Z,71.87
2018-12-15T09:02:34.696Z,91.97
2018-12-15T09:05:03.913Z,122.57
2018-12-15T09:07:32.869Z,134.57
2018-12-15T09:10:01.979Z,167.17
2018-12-15T09:12:30.964Z,130.27
2018-12-15T09:14:59.776Z,115.77
2018-12-15T09:17:28.678Z,141.77
2018-12-15T09:19:57.586Z,112.37
2018-12-15T09:22:26.420Z,93.23
2018-12-15T09:24:55.674Z,90.57
2018-12-15T09:27:24.601Z,67.50
2018-12-15T09:29:53.384Z,67.17
2018-12-15T09:32:22.289Z,74.30
2018-12-15T09:34:51.142Z,63.77
2018-12-15T09:37:20.027Z,62.53
2018-12-15T09:39:48.994Z,63.20
2018-12-15T09:42:17.872Z,68.10
2018-12-15T09:44:46.761Z,63.37
2018-12-15T09:47:15.657Z,69.43
2018-12-15T09:49:44.585Z,63.80
2018-12-15T09:52:13.532Z,76.73
2018-12-15T09:54:42.431Z,75.63
2018-12-15T09:57:11.240Z,72.73
2018-12-15T09:59:40.148Z,77.27
2018-12-15T10:02:09.045Z,75.97
2018-12-15T10:04:37.923Z,73.33
2018-12-15T10:07:06.809Z,75.00
2018-12-15T10:09:35.598Z,85.90
2018-12-15T10:12:04.545Z,72.63
2018-12-15T10:14:33.346Z,89.13
2018-12-15T10:17:02.269Z,87.93
2018-12-15T10:19:31.273Z,99.63
2018-12-15T10:22:00.160Z,76.27
2018-12-15T10:24:29.219Z,108.30
2018-12-15T10:26:58.212Z,115.17
2018-12-15T10:29:32.552Z,122.20
2018-12-15T10:32:06.741Z,114.70
2018-12-15T10:34:35.566Z,114.30
2018-12-15T10:37:04.478Z,103.00
2018-12-15T10:39:33.505Z,118.17
2018-12-15T10:42:03.017Z,113.33
2018-12-15T10:44:32.012Z,104.43
2018-12-15T10:47:00.968Z,106.30
2018-12-15T10:49:30.882Z,104.87
2018-12-15T10:51:59.941Z,122.10
2018-12-15T10:54:28.839Z,105.60
2018-12-15T10:56:57.656Z,114.73
2018-12-15T10:59:26.492Z,112.23
2018-12-15T11:01:55.389Z,107.27
2018-12-15T11:04:24.285Z,117.13
2018-12-15T11:06:53.569Z,98.57
2018-12-15T11:09:22.473Z,95.47
2018-12-15T11:11:51.467Z,110.63
2018-12-15T11:14:20.581Z,123.10
2018-12-15T11:16:49.533Z,108.47
2018-12-15T11:19:18.345Z,118.17
2018-12-15T11:21:47.322Z,129.90
2018-12-15T11:24:16.217Z,130.50
2018-12-15T11:26:45.218Z,119.90
2018-12-15T11:29:14.247Z,128.57
2018-12-15T11:31:43.136Z,141.57
2018-12-15T11:34:12.041Z,147.27
2018-12-15T11:36:41.033Z,138.67
2018-12-15T11:39:09.836Z,142.20
2018-12-15T11:41:38.630Z,118.33
2018-12-15T11:44:07.664Z,153.07
2018-12-15T11:46:36.470Z,157.83
2018-12-15T11:49:05.295Z,158.23
2018-12-15T11:51:34.199Z,169.30
2018-12-15T11:54:03.110Z,171.63
2018-12-15T11:56:32.377Z,179.07
2018-12-15T11:59:01.315Z,173.43
2018-12-15T12:01:30.133Z,173.13
2018-12-15T12:03:59.088Z,176.20
2018-12-15T12:06:28.076Z,181.63
2018-12-15T12:08:57.284Z,189.33
2018-12-15T12:11:26.264Z,202.87
2018-12-15T12:14:00.245Z,182.17
2018-12-15T12:16:26.138Z,197.10
2018-12-15T12:18:55.050Z,193.20
2018-12-15T12:21:23.944Z,159.70
2018-12-15T12:23:52.849Z,199.13
2018-12-15T12:26:21.789Z,190.07
2018-12-15T12:28:50.613Z,189.90
2018-12-15T12:31:19.522Z,201.77
2018-12-15T12:33:48.462Z,198.17
2018-12-15T12:36:17.257Z,191.93
2018-12-15T12:38:46.049Z,194.03
2018-12-15T12:41:14.945Z,207.53
2018-12-15T12:43:43.776Z,190.10
2018-12-15T12:46:12.588Z,201.13
2018-12-15T12:48:41.476Z,309.10
2018-12-15T12:51:10.405Z,222.57
2018-12-15T12:53:39.193Z,239.57
2018-12-15T12:56:08.101Z,177.53
2018-12-15T12:58:37.026Z,167.73
2018-12-15T13:01:05.838Z,173.47
2018-12-15T13:03:34.748Z,192.50
2018-12-15T13:06:03.705Z,168.80
2018-12-15T13:08:32.609Z,162.77
2018-12-15T13:11:01.557Z,194.93
2018-12-15T13:13:30.584Z,187.73
2018-12-15T13:15:59.519Z,188.57
2018-12-15T13:18:28.499Z,188.47
2018-12-15T13:20:57.406Z,160.00
2018-12-15T13:23:26.448Z,152.13
2018-12-15T13:25:55.469Z,150.27
2018-12-15T13:28:24.504Z,136.67
2018-12-15T13:30:53.508Z,146.60
2018-12-15T13:33:35.593Z,153.87
2018-12-15T13:36:11.641Z,149.97
2018-12-15T13:38:40.617Z,157.33
2018-12-15T13:41:09.550Z,149.93
2018-12-15T13:43:38.458Z,151.90
2018-12-15T13:46:07.494Z,152.20
2018-12-15T13:48:36.424Z,164.73
2018-12-15T13:51:05.509Z,162.33
2018-12-15T13:53:34.463Z,162.70
2018-12-15T13:56:03.437Z,173.30
2018-12-15T13:58:32.352Z,189.23
2018-12-15T14:01:01.301Z,210.50
2018-12-15T14:03:30.084Z,188.50
2018-12-15T14:05:59.119Z,176.20
2018-12-15T14:08:27.928Z,163.30
2018-12-15T14:10:56.822Z,147.90
2018-12-15T14:13:25.776Z,145.50
2018-12-15T14:15:54.661Z,136.80
2018-12-15T14:18:23.637Z,154.60
2018-12-15T14:20:52.524Z,144.80
2018-12-15T14:23:21.476Z,155.30
2018-12-15T14:25:50.487Z,149.53
2018-12-15T14:28:19.433Z,164.57
2018-12-15T14:30:48.444Z,172.13
2018-12-15T14:33:17.387Z,165.83
2018-12-15T14:35:46.270Z,163.67
2018-12-15T14:38:15.662Z,149.90
2018-12-15T14:40:44.563Z,158.70
2018-12-15T14:43:13.555Z,143.93
2018-12-15T14:45:42.342Z,139.10
2018-12-15T14:48:11.254Z,140.17
2018-12-15T14:50:40.462Z,140.03
2018-12-15T14:53:09.386Z,115.20
2018-12-15T14:55:38.382Z,130.80
2018-12-15T14:58:07.417Z,133.00
2018-12-15T15:00:36.387Z,121.70
2018-12-15T15:03:05.254Z,127.33
2018-12-15T15:05:34.219Z,145.10
2018-12-15T15:08:03.209Z,140.30
2018-12-15T15:10:32.276Z,147.97
2018-12-15T15:13:01.258Z,168.77
2018-12-15T15:15:30.188Z,162.07
2018-12-15T15:17:59.238Z,164.70
2018-12-15T15:20:29.923Z,167.37
2018-12-15T15:22:59.325Z,151.63
2018-12-15T15:25:28.250Z,151.53
2018-12-15T15:27:57.143Z,144.83
2018-12-15T15:30:25.934Z,131.23
2018-12-15T15:32:54.810Z,133.47
2018-12-15T15:35:23.798Z,129.77
2018-12-15T15:37:52.802Z,132.97
2018-12-15T15:40:21.611Z,122.73
2018-12-15T15:42:51.320Z,133.00
2018-12-15T15:45:20.213Z,130.83
2018-12-15T15:50:24.609Z,153.87
2018-12-15T15:52:53.416Z,134.87
2018-12-15T15:55:22.218Z,136.30
2018-12-15T15:57:51.109Z,159.97
2018-12-15T16:00:20.029Z,167.80
2018-12-15T16:02:48.983Z,165.73
2018-12-15T16:05:17.965Z,184.03
2018-12-15T16:07:47.117Z,189.53
2018-12-15T16:10:15.949Z,169.43
2018-12-15T16:12:44.841Z,176.27
2018-12-15T16:15:14.285Z,166.50
2018-12-15T16:17:44.253Z,141.77
2018-12-15T16:20:13.324Z,162.77
2018-12-15T16:22:42.369Z,165.97
2018-12-15T16:25:11.190Z,187.03
2018-12-15T16:27:40.173Z,197.20
2018-12-15T16:30:11.424Z,213.03
2018-12-15T16:32:40.985Z,200.97
2018-12-15T16:35:10.369Z,207.27
2018-12-15T16:37:39.302Z,257.87
2018-12-15T16:40:08.844Z,238.73
2018-12-15T16:42:37.879Z,221.90
2018-12-15T16:45:09.858Z,205.93
2018-12-15T16:47:39.070Z,221.40
2018-12-15T16:50:11.445Z,224.03
2018-12-15T16:52:40.827Z,254.97
2018-12-15T16:55:10.362Z,249.93
2018-12-15T16:57:39.330Z,241.00
2018-12-15T17:00:13.557Z,260.20
2018-12-15T17:02:42.458Z,226.10
2018-12-15T17:05:11.389Z,255.63
2018-12-15T17:07:41.214Z,230.10
2018-12-15T17:10:10.023Z,238.90
2018-12-15T17:12:39.645Z,234.83
2018-12-15T17:15:09.153Z,229.37
2018-12-15T17:17:38.082Z,249.67
2018-12-15T17:20:08.449Z,233.83
2018-12-15T17:22:37.762Z,225.43
2018-12-15T17:25:07.678Z,211.30
2018-12-15T17:27:36.697Z,222.30
2018-12-15T17:30:07.459Z,290.77
2018-12-15T17:32:36.356Z,310.90
2018-12-15T17:35:06.718Z,323.80
2018-12-15T17:37:36.559Z,372.07
2018-12-15T17:40:07.445Z,349.33
2018-12-15T17:42:36.887Z,354.87
2018-12-15T17:45:07.212Z,342.30
2018-12-15T17:47:36.124Z,356.53
2018-12-15T17:50:05.785Z,387.67
2018-12-15T17:52:34.687Z,423.47
2018-12-15T17:55:04.713Z,439.13
2018-12-15T17:57:33.728Z,420.47
2018-12-15T18:00:04.113Z,420.30
2018-12-15T18:02:34.191Z,372.17
2018-12-15T18:05:03.369Z,425.80
2018-12-15T18:07:32.319Z,423.13
2018-12-15T18:10:01.271Z,425.97
2018-12-15T18:12:30.186Z,442.53
2018-12-15T18:14:59.078Z,409.03
2018-12-15T18:17:29.861Z,370.10
2018-12-15T18:19:58.713Z,368.40
2018-12-15T18:22:27.958Z,361.87
2018-12-15T18:24:57.658Z,363.13
2018-12-15T18:27:26.590Z,364.77
2018-12-15T18:29:55.492Z,341.07
2018-12-15T18:32:24.530Z,342.83
2018-12-15T18:34:53.481Z,347.07
2018-12-15T18:37:22.925Z,350.90
2018-12-15T18:39:52.143Z,326.70
2018-12-15T18:42:21.153Z,327.83
2018-12-15T18:44:50.076Z,355.80
2018-12-15T18:47:18.949Z,356.40
2018-12-15T18:49:47.948Z,350.27
2018-12-15T18:52:16.965Z,333.83
2018-12-15T18:54:45.870Z,339.37
2018-12-15T18:57:14.804Z,369.33
2018-12-15T18:59:43.717Z,381.00
2018-12-15T19:02:13.091Z,427.93
2018-12-15T19:04:41.990Z,380.00
2018-12-15T19:07:10.886Z,384.43
2018-12-15T19:09:39.892Z,409.73
2018-12-15T19:12:08.862Z,434.00
2018-12-15T19:14:37.764Z,429.03
2018-12-15T19:17:06.741Z,454.67
2018-12-15T19:19:35.626Z,434.13
2018-12-15T19:22:04.530Z,453.13
2018-12-15T19:24:33.442Z,431.80
2018-12-15T19:27:02.258Z,447.93
2018-12-15T19:29:32.068Z,421.53
2018-12-15T19:32:01.601Z,483.73
2018-12-15T19:34:30.509Z,501.33
2018-12-15T19:37:01.271Z,472.33
2018-12-15T19:39:32.087Z,410.37
2018-12-15T19:42:01.182Z,405.67
2018-12-15T19:44:30.567Z,454.97
2018-12-15T19:47:00.729Z,473.53
2018-12-15T19:49:29.929Z,444.60
2018-12-15T19:51:58.852Z,457.80
2018-12-15T19:54:27.694Z,411.37
2018-12-15T19:56:56.609Z,462.87
2018-12-15T19:59:26.190Z,437.40
2018-12-15T20:01:55.000Z,362.57
2018-12-15T20:04:23.901Z,336.77
2018-12-15T20:06:53.672Z,364.20
2018-12-15T20:09:22.711Z,327.20
2018-12-15T20:11:51.598Z,297.60
2018-12-15T20:14:20.396Z,287.10
2018-12-15T20:16:49.297Z,272.77
2018-12-15T20:19:18.332Z,256.30
2018-12-15T20:21:47.140Z,256.40
2018-12-15T20:24:16.693Z,255.57
2018-12-15T20:26:45.604Z,227.13
2018-12-15T20:29:14.498Z,265.53
2018-12-15T20:31:43.416Z,191.23
2018-12-15T20:34:12.769Z,190.47
2018-12-15T20:36:41.709Z,201.30
2018-12-15T20:39:10.582Z,196.10
2018-12-15T20:41:39.484Z,222.50
2018-12-15T20:44:08.383Z,282.00
2018-12-15T20:46:37.172Z,226.67
2018-12-15T20:49:05.957Z,208.37
2018-12-15T20:51:34.867Z,263.50
2018-12-15T20:54:03.855Z,241.43
2018-12-15T20:56:32.773Z,239.50
2018-12-15T20:59:01.661Z,236.97
2018-12-15T21:01:30.706Z,245.03
2018-12-15T21:03:59.620Z,235.60
2018-12-15T21:06:28.532Z,226.37
2018-12-15T21:08:57.409Z,231.03
2018-12-15T21:11:26.305Z,203.10
2018-12-15T21:13:55.189Z,172.50
2018-12-15T21:16:25.602Z,170.33
2018-12-15T21:18:54.509Z,185.37
2018-12-15T21:21:23.532Z,169.77
2018-12-15T21:23:52.649Z,155.23
2018-12-15T21:26:21.539Z,154.43
2018-12-15T21:28:50.347Z,162.70
2018-12-15T21:31:19.183Z,144.20
2018-12-15T21:33:48.195Z,142.63
2018-12-15T21:36:17.180Z,135.03
2018-12-15T21:38:46.056Z,131.97
2018-12-15T21:41:14.947Z,123.83
2018-12-15T21:43:43.824Z,104.60
2018-12-15T21:46:13.481Z,109.07
2018-12-15T21:48:42.276Z,104.07
2018-12-15T21:51:11.080Z,111.90
2018-12-15T21:53:40.001Z,104.77
2018-12-15T21:56:09.114Z,106.87
2018-12-15T21:58:38.016Z,107.53
2018-12-15T22:01:07.032Z,105.93
2018-12-15T22:03:35.961Z,92.93
2018-12-15T22:06:04.870Z,143.43
2018-12-15T22:08:33.761Z,118.70
2018-12-15T22:11:02.592Z,116.53
2018-12-15T22:13:31.481Z,98.97
2018-12-15T22:16:00.261Z,112.23
2018-12-15T22:18:29.177Z,127.30
2018-12-15T22:20:58.320Z,117.60
2018-12-15T22:23:27.207Z,121.77
2018-12-15T22:25:56.103Z,120.50
2018-12-15T22:28:24.998Z,122.67
2018-12-15T22:30:53.906Z,107.57
2018-12-15T22:33:22.797Z,107.27
2018-12-15T22:35:51.608Z,120.03
2018-12-15T22:38:20.510Z,113.57
2018-12-15T22:40:49.297Z,124.27
2018-12-15T22:43:18.101Z,123.60
2018-12-15T22:45:46.907Z,133.17
2018-12-15T22:48:15.720Z,132.43
2018-12-15T22:50:44.612Z,137.63
2018-12-15T22:53:13.425Z,137.63
2018-12-15T22:55:42.707Z,139.90
2018-12-15T22:58:11.642Z,133.17
2018-12-15T23:00:47.189Z,155.43
2018-12-15T23:03:16.229Z,141.40
2018-12-15T23:05:45.138Z,130.93
2018-12-15T23:08:13.926Z,133.57
2018-12-15T23:10:42.858Z,141.53
2018-12-15T23:13:11.785Z,154.67
2018-12-15T23:15:40.685Z,147.27
2018-12-15T23:18:09.494Z,129.33
2018-12-15T23:20:38.512Z,143.93
2018-12-15T23:23:07.404Z,145.47
2018-12-15T23:25:36.300Z,155.07
2018-12-15T23:28:05.303Z,154.07
2018-12-15T23:30:34.216Z,158.37
2018-12-15T23:33:03.238Z,153.83
2018-12-15T23:35:32.249Z,154.90
2018-12-15T23:38:01.193Z,144.90
2018-12-15T23:40:30.003Z,143.80
2018-12-15T23:42:58.891Z,151.13
2018-12-15T23:45:27.697Z,168.97
2018-12-15T23:47:56.597Z,158.97
2018-12-15T23:50:25.511Z,170.50
2018-12-15T23:52:54.597Z,167.90
2018-12-15T23:55:23.493Z,165.67
2018-12-15T23:57:52.409Z,163.97
